createdAt,value
2022-08-05T00:06:51.629Z,77
2022-08-05T00:16:52.249Z,77
2022-08-05T00:26:53.868Z,77
2022-08-05T00:37:09.468Z,76
2022-08-05T00:47:01.726Z,77
2022-08-05T00:57:00.319Z,79
2022-08-05T01:07:05.076Z,81
2022-08-05T01:17:05.324Z,83
2022-08-05T01:27:12.220Z,86
2022-08-05T01:37:09.831Z,88
2022-08-05T01:47:12.365Z,88
2022-08-05T01:58:09.026Z,88
2022-08-05T02:07:21.781Z,88
2022-08-05T02:17:30.015Z,88
2022-08-05T02:27:20.715Z,88
2022-08-05T02:47:24.724Z,91
2022-08-05T03:07:48.470Z,96
2022-08-05T03:17:31.431Z,98
2022-08-05T03:37:45.938Z,100
2022-08-05T03:57:41.463Z,100
2022-08-05T04:07:58.437Z,100
2022-08-05T04:57:54.558Z,100
2022-08-05T05:17:59.392Z,100
2022-08-05T05:28:01.505Z,100
2022-08-05T05:38:05.578Z,100
2022-08-05T05:48:08.257Z,100
2022-08-05T05:58:08.169Z,100
2022-08-05T06:08:10.705Z,100
2022-08-05T06:18:13.354Z,100
2022-08-05T06:28:21.043Z,100
2022-08-05T06:38:17.764Z,100
2022-08-05T06:58:30.306Z,100
2022-08-05T07:08:23.226Z,100
2022-08-05T07:18:27.393Z,100
2022-08-05T07:28:27.267Z,100
2022-08-05T07:38:32.627Z,99
2022-08-05T07:49:01.176Z,100
2022-08-05T08:08:36.788Z,99
2022-08-05T08:49:05.150Z,97
2022-08-05T08:58:48.063Z,96
2022-08-05T09:08:49.852Z,99
2022-08-05T09:18:52.029Z,99
2022-08-05T09:28:54.252Z,98
2022-08-05T09:38:56.122Z,100
2022-08-05T09:49:06.659Z,97
2022-08-05T09:59:00.242Z,96
2022-08-05T10:19:08.665Z,94
2022-08-05T10:39:10.601Z,94
2022-08-05T10:49:16.694Z,92
2022-08-05T11:00:01.488Z,86
2022-08-05T11:09:16.319Z,81
2022-08-05T11:39:22.261Z,74
2022-08-05T11:49:24.083Z,73
2022-08-05T11:59:26.595Z,72
2022-08-05T12:09:38.750Z,72
2022-08-05T12:20:17.597Z,70
2022-08-05T12:29:38.082Z,64
2022-08-05T12:39:37.648Z,62
2022-08-05T12:59:47.160Z,66
2022-08-05T13:19:52.586Z,62
2022-08-05T13:40:13.320Z,60
2022-08-05T13:59:55.616Z,60
2022-08-05T14:50:17.640Z,50
2022-08-05T15:50:16.636Z,36
2022-08-05T17:20:36.559Z,39
2022-08-05T17:30:42.366Z,39
2022-08-05T17:50:43.311Z,42
2022-08-05T18:00:47.398Z,42
2022-08-05T18:10:47.085Z,42
2022-08-05T18:20:49.510Z,43
2022-08-05T18:30:51.538Z,44
2022-08-05T18:50:54.809Z,47
2022-08-05T19:00:57.035Z,48
2022-08-05T19:10:58.888Z,50
2022-08-05T19:21:01.096Z,51
2022-08-05T19:31:04.933Z,52
2022-08-05T19:41:06.936Z,53
2022-08-05T19:51:07.450Z,55
2022-08-05T20:01:09.829Z,57
2022-08-05T20:11:11.951Z,58
2022-08-05T20:21:13.886Z,60
2022-08-05T20:31:16.330Z,61
2022-08-05T20:41:23.804Z,61
2022-08-05T20:51:19.814Z,63
2022-08-05T21:01:22.126Z,64
2022-08-05T21:12:06.658Z,65
2022-08-05T21:21:26.115Z,66
2022-08-05T21:31:28.584Z,66
2022-08-05T21:41:33.031Z,67
2022-08-05T21:52:17.066Z,68
2022-08-05T22:01:35.683Z,69
2022-08-05T22:11:38.075Z,70
2022-08-05T22:21:40.362Z,71
2022-08-05T22:31:44.297Z,72
2022-08-05T22:42:05.816Z,71
2022-08-05T23:01:51.072Z,73
2022-08-05T23:12:01.405Z,74
2022-08-05T23:22:04.092Z,74
2022-08-05T23:32:05.815Z,75
2022-08-05T23:42:10.905Z,76
2022-08-05T23:52:09.563Z,76
